sensor_id;sensor_type;location;lat;lon;timestamp;P1;durP1;ratioP1;P2;durP2;ratioP2
37355;SDS011;48747;50.250;18.848;2023-04-30T00:00:58;44.38;;;26.10;;
37355;SDS011;48747;50.250;18.848;2023-04-30T00:03:01;44.30;;;25.00;;
37355;SDS011;48747;50.250;18.848;2023-04-30T00:05:04;44.48;;;26.00;;
37355;SDS011;48747;50.250;18.848;2023-04-30T00:07:08;45.70;;;24.20;;
37355;SDS011;48747;50.250;18.848;2023-04-30T00:09:11;45.35;;;24.67;;
37355;SDS011;48747;50.250;18.848;2023-04-30T00:11:14;46.60;;;26.12;;
37355;SDS011;48747;50.250;18.848;2023-04-30T00:13:17;44.33;;;25.00;;
37355;SDS011;48747;50.250;18.848;2023-04-30T00:15:20;46.28;;;26.87;;
37355;SDS011;48747;50.250;18.848;2023-04-30T00:17:23;41.08;;;24.25;;
37355;SDS011;48747;50.250;18.848;2023-04-30T00:19:26;42.13;;;24.45;;
37355;SDS011;48747;50.250;18.848;2023-04-30T00:21:29;46.28;;;25.30;;
37355;SDS011;48747;50.250;18.848;2023-04-30T00:23:33;46.60;;;25.88;;
37355;SDS011;48747;50.250;18.848;2023-04-30T00:25:38;47.03;;;25.17;;
37355;SDS011;48747;50.250;18.848;2023-04-30T00:27:41;47.93;;;26.42;;
37355;SDS011;48747;50.250;18.848;2023-04-30T00:29:44;52.05;;;28.30;;
37355;SDS011;48747;50.250;18.848;2023-04-30T00:31:47;48.83;;;28.10;;
37355;SDS011;48747;50.250;18.848;2023-04-30T00:33:50;50.58;;;27.77;;
37355;SDS011;48747;50.250;18.848;2023-04-30T00:35:53;54.25;;;28.73;;
37355;SDS011;48747;50.250;18.848;2023-04-30T00:37:56;53.00;;;28.10;;
37355;SDS011;48747;50.250;18.848;2023-04-30T00:39:59;53.33;;;28.00;;
37355;SDS011;48747;50.250;18.848;2023-04-30T00:42:03;50.25;;;27.48;;
37355;SDS011;48747;50.250;18.848;2023-04-30T00:44:05;53.17;;;29.45;;
37355;SDS011;48747;50.250;18.848;2023-04-30T00:46:08;55.70;;;29.42;;
37355;SDS011;48747;50.250;18.848;2023-04-30T00:48:12;55.48;;;29.57;;
37355;SDS011;48747;50.250;18.848;2023-04-30T00:50:16;59.30;;;29.52;;
37355;SDS011;48747;50.250;18.848;2023-04-30T00:52:19;55.52;;;29.82;;
37355;SDS011;48747;50.250;18.848;2023-04-30T00:54:22;52.48;;;28.62;;
37355;SDS011;48747;50.250;18.848;2023-04-30T00:56:26;48.17;;;26.10;;
37355;SDS011;48747;50.250;18.848;2023-04-30T00:58:34;54.08;;;27.10;;
37355;SDS011;48747;50.250;18.848;2023-04-30T01:00:37;52.25;;;25.95;;
37355;SDS011;48747;50.250;18.848;2023-04-30T01:02:43;49.85;;;25.97;;
37355;SDS011;48747;50.250;18.848;2023-04-30T01:04:46;45.85;;;25.25;;
37355;SDS011;48747;50.250;18.848;2023-04-30T01:06:49;45.95;;;24.50;;
37355;SDS011;48747;50.250;18.848;2023-04-30T01:08:53;40.70;;;23.65;;
37355;SDS011;48747;50.250;18.848;2023-04-30T01:11:21;41.80;;;23.02;;
37355;SDS011;48747;50.250;18.848;2023-04-30T01:13:28;43.58;;;23.05;;
37355;SDS011;48747;50.250;18.848;2023-04-30T01:15:36;38.90;;;20.85;;
37355;SDS011;48747;50.250;18.848;2023-04-30T01:17:53;36.75;;;20.02;;
37355;SDS011;48747;50.250;18.848;2023-04-30T01:22:20;32.53;;;18.32;;
37355;SDS011;48747;50.250;18.848;2023-04-30T01:27:05;33.90;;;18.32;;
37355;SDS011;48747;50.250;18.848;2023-04-30T01:29:02;29.72;;;17.12;;
37355;SDS011;48747;50.250;18.848;2023-04-30T01:31:17;28.95;;;16.65;;
37355;SDS011;48747;50.250;18.848;2023-04-30T01:33:18;32.08;;;16.95;;
37355;SDS011;48747;50.250;18.848;2023-04-30T01:35:22;28.00;;;16.17;;
37355;SDS011;48747;50.250;18.848;2023-04-30T01:37:30;26.15;;;15.95;;
37355;SDS011;48747;50.250;18.848;2023-04-30T01:39:41;22.42;;;13.78;;
37355;SDS011;48747;50.250;18.848;2023-04-30T01:46:52;18.42;;;12.25;;
37355;SDS011;48747;50.250;18.848;2023-04-30T01:51:39;18.07;;;10.88;;
37355;SDS011;48747;50.250;18.848;2023-04-30T01:53:44;18.07;;;11.45;;
37355;SDS011;48747;50.250;18.848;2023-04-30T01:55:54;17.92;;;11.45;;
37355;SDS011;48747;50.250;18.848;2023-04-30T01:57:57;19.17;;;11.63;;
37355;SDS011;48747;50.250;18.848;2023-04-30T02:00:01;17.15;;;11.20;;
37355;SDS011;48747;50.250;18.848;2023-04-30T02:02:05;20.50;;;11.22;;
37355;SDS011;48747;50.250;18.848;2023-04-30T02:04:08;19.07;;;11.48;;
37355;SDS011;48747;50.250;18.848;2023-04-30T02:06:11;14.87;;;9.05;;
37355;SDS011;48747;50.250;18.848;2023-04-30T02:08:15;17.60;;;10.85;;
37355;SDS011;48747;50.250;18.848;2023-04-30T02:10:19;17.87;;;10.65;;
37355;SDS011;48747;50.250;18.848;2023-04-30T02:12:23;16.95;;;10.68;;
37355;SDS011;48747;50.250;18.848;2023-04-30T02:14:29;18.23;;;10.30;;
37355;SDS011;48747;50.250;18.848;2023-04-30T02:16:33;15.85;;;10.45;;
37355;SDS011;48747;50.250;18.848;2023-04-30T02:18:36;17.12;;;9.90;;
37355;SDS011;48747;50.250;18.848;2023-04-30T02:20:39;16.07;;;10.03;;
37355;SDS011;48747;50.250;18.848;2023-04-30T02:22:42;15.70;;;10.18;;
37355;SDS011;48747;50.250;18.848;2023-04-30T02:24:45;15.90;;;10.23;;
37355;SDS011;48747;50.250;18.848;2023-04-30T02:26:48;16.95;;;10.20;;
37355;SDS011;48747;50.250;18.848;2023-04-30T02:28:53;16.32;;;10.43;;
37355;SDS011;48747;50.250;18.848;2023-04-30T02:30:56;20.32;;;11.18;;
37355;SDS011;48747;50.250;18.848;2023-04-30T02:32:59;18.42;;;12.98;;
37355;SDS011;48747;50.250;18.848;2023-04-30T02:35:03;22.25;;;13.95;;
37355;SDS011;48747;50.250;18.848;2023-04-30T02:37:11;22.10;;;15.45;;
37355;SDS011;48747;50.250;18.848;2023-04-30T02:39:13;21.07;;;14.93;;
37355;SDS011;48747;50.250;18.848;2023-04-30T02:41:16;18.20;;;12.95;;
37355;SDS011;48747;50.250;18.848;2023-04-30T02:43:19;17.75;;;12.93;;
37355;SDS011;48747;50.250;18.848;2023-04-30T02:45:22;20.10;;;12.10;;
37355;SDS011;48747;50.250;18.848;2023-04-30T02:47:30;21.35;;;13.20;;
37355;SDS011;48747;50.250;18.848;2023-04-30T02:49:30;26.17;;;16.27;;
37355;SDS011;48747;50.250;18.848;2023-04-30T02:51:33;28.05;;;16.45;;
37355;SDS011;48747;50.250;18.848;2023-04-30T02:53:36;29.55;;;16.65;;
37355;SDS011;48747;50.250;18.848;2023-04-30T02:55:39;27.13;;;17.17;;
37355;SDS011;48747;50.250;18.848;2023-04-30T02:57:43;29.32;;;16.85;;
37355;SDS011;48747;50.250;18.848;2023-04-30T02:59:46;22.90;;;13.83;;
37355;SDS011;48747;50.250;18.848;2023-04-30T03:01:49;29.77;;;18.30;;
37355;SDS011;48747;50.250;18.848;2023-04-30T03:03:52;35.63;;;19.32;;
37355;SDS011;48747;50.250;18.848;2023-04-30T03:05:59;32.55;;;20.57;;
37355;SDS011;48747;50.250;18.848;2023-04-30T03:08:04;27.87;;;17.92;;
37355;SDS011;48747;50.250;18.848;2023-04-30T03:10:07;31.73;;;18.92;;
37355;SDS011;48747;50.250;18.848;2023-04-30T03:12:11;35.70;;;20.25;;
37355;SDS011;48747;50.250;18.848;2023-04-30T03:14:18;35.90;;;19.55;;
37355;SDS011;48747;50.250;18.848;2023-04-30T03:16:25;32.28;;;19.40;;
37355;SDS011;48747;50.250;18.848;2023-04-30T03:18:29;31.80;;;20.05;;
37355;SDS011;48747;50.250;18.848;2023-04-30T03:20:36;32.83;;;19.55;;
37355;SDS011;48747;50.250;18.848;2023-04-30T03:22:39;30.62;;;19.30;;
37355;SDS011;48747;50.250;18.848;2023-04-30T03:24:44;34.43;;;20.52;;
37355;SDS011;48747;50.250;18.848;2023-04-30T03:26:47;37.35;;;23.27;;
37355;SDS011;48747;50.250;18.848;2023-04-30T03:28:51;32.05;;;20.45;;
37355;SDS011;48747;50.250;18.848;2023-04-30T03:30:56;33.45;;;21.50;;
37355;SDS011;48747;50.250;18.848;2023-04-30T03:32:59;36.65;;;21.80;;
37355;SDS011;48747;50.250;18.848;2023-04-30T03:35:03;35.52;;;20.12;;
37355;SDS011;48747;50.250;18.848;2023-04-30T03:37:06;32.50;;;22.20;;
37355;SDS011;48747;50.250;18.848;2023-04-30T03:39:09;30.60;;;19.80;;
37355;SDS011;48747;50.250;18.848;2023-04-30T03:41:13;35.88;;;21.33;;
37355;SDS011;48747;50.250;18.848;2023-04-30T03:43:16;33.53;;;19.90;;
37355;SDS011;48747;50.250;18.848;2023-04-30T03:45:19;29.35;;;19.05;;
37355;SDS011;48747;50.250;18.848;2023-04-30T03:47:24;27.62;;;19.05;;
37355;SDS011;48747;50.250;18.848;2023-04-30T03:49:27;32.15;;;18.73;;
37355;SDS011;48747;50.250;18.848;2023-04-30T03:51:35;30.25;;;18.82;;
37355;SDS011;48747;50.250;18.848;2023-04-30T03:53:36;29.27;;;18.73;;
37355;SDS011;48747;50.250;18.848;2023-04-30T03:55:41;36.13;;;20.95;;
37355;SDS011;48747;50.250;18.848;2023-04-30T03:57:44;32.60;;;20.27;;
37355;SDS011;48747;50.250;18.848;2023-04-30T03:59:47;32.73;;;21.30;;
37355;SDS011;48747;50.250;18.848;2023-04-30T04:01:51;31.90;;;20.80;;
37355;SDS011;48747;50.250;18.848;2023-04-30T04:03:54;36.53;;;22.15;;
37355;SDS011;48747;50.250;18.848;2023-04-30T04:05:57;35.70;;;22.48;;
37355;SDS011;48747;50.250;18.848;2023-04-30T04:08:00;35.48;;;23.02;;
37355;SDS011;48747;50.250;18.848;2023-04-30T04:10:04;36.85;;;22.87;;
37355;SDS011;48747;50.250;18.848;2023-04-30T04:12:22;34.23;;;22.10;;
37355;SDS011;48747;50.250;18.848;2023-04-30T04:14:12;59.23;;;22.85;;
37355;SDS011;48747;50.250;18.848;2023-04-30T04:16:16;37.45;;;24.92;;
37355;SDS011;48747;50.250;18.848;2023-04-30T04:18:19;37.38;;;22.93;;
37355;SDS011;48747;50.250;18.848;2023-04-30T04:20:22;33.90;;;23.00;;
37355;SDS011;48747;50.250;18.848;2023-04-30T04:22:27;33.55;;;22.55;;
37355;SDS011;48747;50.250;18.848;2023-04-30T04:24:32;36.85;;;22.52;;
37355;SDS011;48747;50.250;18.848;2023-04-30T04:26:38;34.38;;;22.00;;
37355;SDS011;48747;50.250;18.848;2023-04-30T04:28:41;33.78;;;21.85;;
37355;SDS011;48747;50.250;18.848;2023-04-30T04:30:45;33.50;;;21.10;;
37355;SDS011;48747;50.250;18.848;2023-04-30T04:32:48;31.23;;;21.27;;
37355;SDS011;48747;50.250;18.848;2023-04-30T04:34:54;31.20;;;21.02;;
37355;SDS011;48747;50.250;18.848;2023-04-30T04:36:57;29.30;;;19.62;;
37355;SDS011;48747;50.250;18.848;2023-04-30T04:39:02;30.65;;;20.57;;
37355;SDS011;48747;50.250;18.848;2023-04-30T04:41:05;31.02;;;20.25;;
37355;SDS011;48747;50.250;18.848;2023-04-30T04:43:08;31.77;;;20.85;;
37355;SDS011;48747;50.250;18.848;2023-04-30T04:45:12;46.42;;;28.40;;
37355;SDS011;48747;50.250;18.848;2023-04-30T04:47:16;41.13;;;25.23;;
37355;SDS011;48747;50.250;18.848;2023-04-30T04:49:21;41.40;;;27.77;;
37355;SDS011;48747;50.250;18.848;2023-04-30T04:51:24;39.33;;;27.13;;
37355;SDS011;48747;50.250;18.848;2023-04-30T04:53:27;38.15;;;27.77;;
37355;SDS011;48747;50.250;18.848;2023-04-30T04:55:30;28.67;;;19.10;;
37355;SDS011;48747;50.250;18.848;2023-04-30T04:57:33;48.23;;;31.37;;
37355;SDS011;48747;50.250;18.848;2023-04-30T04:59:36;44.13;;;31.17;;
37355;SDS011;48747;50.250;18.848;2023-04-30T05:01:41;40.80;;;26.87;;
37355;SDS011;48747;50.250;18.848;2023-04-30T05:03:44;33.35;;;20.27;;
37355;SDS011;48747;50.250;18.848;2023-04-30T05:05:47;27.55;;;18.48;;
37355;SDS011;48747;50.250;18.848;2023-04-30T05:07:51;27.52;;;17.70;;
37355;SDS011;48747;50.250;18.848;2023-04-30T05:09:55;26.02;;;16.05;;
37355;SDS011;48747;50.250;18.848;2023-04-30T05:11:59;23.83;;;15.32;;
37355;SDS011;48747;50.250;18.848;2023-04-30T05:14:03;26.30;;;15.72;;
37355;SDS011;48747;50.250;18.848;2023-04-30T05:16:06;23.77;;;14.58;;
37355;SDS011;48747;50.250;18.848;2023-04-30T05:18:09;24.00;;;16.07;;
37355;SDS011;48747;50.250;18.848;2023-04-30T05:20:12;28.92;;;17.00;;
37355;SDS011;48747;50.250;18.848;2023-04-30T05:22:15;26.65;;;19.02;;
37355;SDS011;48747;50.250;18.848;2023-04-30T05:24:19;26.40;;;19.25;;
37355;SDS011;48747;50.250;18.848;2023-04-30T05:26:22;32.03;;;20.02;;
37355;SDS011;48747;50.250;18.848;2023-04-30T05:28:25;25.62;;;16.30;;
37355;SDS011;48747;50.250;18.848;2023-04-30T05:30:28;27.58;;;16.62;;
37355;SDS011;48747;50.250;18.848;2023-04-30T05:32:31;25.25;;;16.07;;
37355;SDS011;48747;50.250;18.848;2023-04-30T05:34:34;23.90;;;16.10;;
37355;SDS011;48747;50.250;18.848;2023-04-30T05:36:37;27.02;;;17.37;;
37355;SDS011;48747;50.250;18.848;2023-04-30T05:38:40;21.35;;;15.50;;
37355;SDS011;48747;50.250;18.848;2023-04-30T05:40:43;19.65;;;14.20;;
37355;SDS011;48747;50.250;18.848;2023-04-30T05:42:47;23.00;;;13.53;;
37355;SDS011;48747;50.250;18.848;2023-04-30T05:44:50;21.02;;;13.40;;
37355;SDS011;48747;50.250;18.848;2023-04-30T05:46:56;20.55;;;15.03;;
37355;SDS011;48747;50.250;18.848;2023-04-30T05:48:59;20.72;;;14.38;;
37355;SDS011;48747;50.250;18.848;2023-04-30T05:51:03;24.87;;;15.48;;
37355;SDS011;48747;50.250;18.848;2023-04-30T05:53:07;23.87;;;14.78;;
37355;SDS011;48747;50.250;18.848;2023-04-30T05:55:11;23.18;;;14.23;;
37355;SDS011;48747;50.250;18.848;2023-04-30T05:57:14;20.55;;;13.68;;
37355;SDS011;48747;50.250;18.848;2023-04-30T05:59:17;19.32;;;14.18;;
37355;SDS011;48747;50.250;18.848;2023-04-30T06:01:20;19.77;;;13.10;;
37355;SDS011;48747;50.250;18.848;2023-04-30T06:03:23;18.67;;;12.47;;
37355;SDS011;48747;50.250;18.848;2023-04-30T06:05:26;20.70;;;12.07;;
37355;SDS011;48747;50.250;18.848;2023-04-30T06:07:29;22.90;;;12.93;;
37355;SDS011;48747;50.250;18.848;2023-04-30T06:09:32;17.98;;;11.57;;
37355;SDS011;48747;50.250;18.848;2023-04-30T06:11:35;17.35;;;11.30;;
37355;SDS011;48747;50.250;18.848;2023-04-30T06:13:39;18.10;;;12.07;;
37355;SDS011;48747;50.250;18.848;2023-04-30T06:15:45;15.00;;;11.25;;
37355;SDS011;48747;50.250;18.848;2023-04-30T06:17:48;15.53;;;11.12;;
37355;SDS011;48747;50.250;18.848;2023-04-30T06:19:51;15.75;;;10.38;;
37355;SDS011;48747;50.250;18.848;2023-04-30T06:21:54;18.10;;;10.80;;
37355;SDS011;48747;50.250;18.848;2023-04-30T06:23:59;17.42;;;10.05;;
37355;SDS011;48747;50.250;18.848;2023-04-30T06:26:02;15.53;;;9.83;;
37355;SDS011;48747;50.250;18.848;2023-04-30T06:28:07;14.70;;;9.20;;
37355;SDS011;48747;50.250;18.848;2023-04-30T06:30:10;14.33;;;10.18;;
37355;SDS011;48747;50.250;18.848;2023-04-30T06:32:13;17.40;;;8.60;;
37355;SDS011;48747;50.250;18.848;2023-04-30T06:34:17;14.10;;;8.40;;
37355;SDS011;48747;50.250;18.848;2023-04-30T06:36:21;15.18;;;8.10;;
37355;SDS011;48747;50.250;18.848;2023-04-30T06:38:24;14.98;;;9.18;;
37355;SDS011;48747;50.250;18.848;2023-04-30T06:40:27;17.15;;;8.75;;
37355;SDS011;48747;50.250;18.848;2023-04-30T06:42:30;15.08;;;9.13;;
37355;SDS011;48747;50.250;18.848;2023-04-30T06:44:38;15.63;;;9.63;;
37355;SDS011;48747;50.250;18.848;2023-04-30T06:46:41;14.35;;;9.03;;
37355;SDS011;48747;50.250;18.848;2023-04-30T06:48:44;12.88;;;8.50;;
37355;SDS011;48747;50.250;18.848;2023-04-30T06:50:47;14.65;;;8.33;;
37355;SDS011;48747;50.250;18.848;2023-04-30T06:52:50;13.10;;;8.50;;
37355;SDS011;48747;50.250;18.848;2023-04-30T06:54:53;14.23;;;8.60;;
37355;SDS011;48747;50.250;18.848;2023-04-30T06:56:56;14.93;;;8.45;;
37355;SDS011;48747;50.250;18.848;2023-04-30T06:59:00;18.48;;;9.05;;
37355;SDS011;48747;50.250;18.848;2023-04-30T07:01:03;14.18;;;8.10;;
37355;SDS011;48747;50.250;18.848;2023-04-30T07:03:06;12.20;;;8.53;;
37355;SDS011;48747;50.250;18.848;2023-04-30T07:05:23;13.55;;;8.00;;
37355;SDS011;48747;50.250;18.848;2023-04-30T07:07:15;11.60;;;7.12;;
37355;SDS011;48747;50.250;18.848;2023-04-30T07:09:18;11.53;;;7.08;;
37355;SDS011;48747;50.250;18.848;2023-04-30T07:11:21;14.68;;;8.13;;
37355;SDS011;48747;50.250;18.848;2023-04-30T07:13:26;10.45;;;7.47;;
37355;SDS011;48747;50.250;18.848;2023-04-30T07:15:29;13.48;;;8.08;;
37355;SDS011;48747;50.250;18.848;2023-04-30T07:17:34;12.90;;;7.35;;
37355;SDS011;48747;50.250;18.848;2023-04-30T07:19:38;11.43;;;7.65;;
37355;SDS011;48747;50.250;18.848;2023-04-30T07:21:41;12.47;;;7.60;;
37355;SDS011;48747;50.250;18.848;2023-04-30T07:23:48;11.08;;;7.42;;
37355;SDS011;48747;50.250;18.848;2023-04-30T07:25:51;13.58;;;8.28;;
37355;SDS011;48747;50.250;18.848;2023-04-30T07:27:59;10.88;;;7.12;;
37355;SDS011;48747;50.250;18.848;2023-04-30T07:30:02;13.22;;;7.17;;
37355;SDS011;48747;50.250;18.848;2023-04-30T07:32:11;13.32;;;7.33;;
37355;SDS011;48747;50.250;18.848;2023-04-30T07:34:16;12.47;;;7.92;;
37355;SDS011;48747;50.250;18.848;2023-04-30T07:36:20;15.15;;;8.25;;
37355;SDS011;48747;50.250;18.848;2023-04-30T07:38:25;17.40;;;7.33;;
37355;SDS011;48747;50.250;18.848;2023-04-30T07:40:30;11.93;;;8.18;;
37355;SDS011;48747;50.250;18.848;2023-04-30T07:42:35;14.63;;;8.23;;
37355;SDS011;48747;50.250;18.848;2023-04-30T07:44:38;12.82;;;7.50;;
37355;SDS011;48747;50.250;18.848;2023-04-30T07:46:42;10.38;;;7.03;;
37355;SDS011;48747;50.250;18.848;2023-04-30T07:48:45;12.78;;;7.40;;
37355;SDS011;48747;50.250;18.848;2023-04-30T07:50:48;11.73;;;7.30;;
37355;SDS011;48747;50.250;18.848;2023-04-30T07:52:51;8.70;;;6.20;;
37355;SDS011;48747;50.250;18.848;2023-04-30T07:54:57;14.25;;;7.00;;
37355;SDS011;48747;50.250;18.848;2023-04-30T07:57:00;8.65;;;6.05;;
37355;SDS011;48747;50.250;18.848;2023-04-30T07:59:04;11.70;;;6.67;;
37355;SDS011;48747;50.250;18.848;2023-04-30T08:01:21;9.30;;;6.78;;
37355;SDS011;48747;50.250;18.848;2023-04-30T08:03:18;10.20;;;6.03;;
37355;SDS011;48747;50.250;18.848;2023-04-30T08:05:21;8.23;;;5.12;;
37355;SDS011;48747;50.250;18.848;2023-04-30T08:07:24;8.45;;;4.95;;
37355;SDS011;48747;50.250;18.848;2023-04-30T08:09:27;7.65;;;5.05;;
37355;SDS011;48747;50.250;18.848;2023-04-30T08:11:30;8.40;;;5.60;;
37355;SDS011;48747;50.250;18.848;2023-04-30T08:13:33;9.83;;;6.33;;
37355;SDS011;48747;50.250;18.848;2023-04-30T08:15:37;8.40;;;5.47;;
37355;SDS011;48747;50.250;18.848;2023-04-30T08:17:40;8.83;;;6.15;;
37355;SDS011;48747;50.250;18.848;2023-04-30T08:19:43;7.58;;;5.78;;
37355;SDS011;48747;50.250;18.848;2023-04-30T08:21:46;11.38;;;5.45;;
37355;SDS011;48747;50.250;18.848;2023-04-30T08:23:49;12.73;;;6.87;;
37355;SDS011;48747;50.250;18.848;2023-04-30T08:25:52;9.00;;;5.60;;
37355;SDS011;48747;50.250;18.848;2023-04-30T08:27:56;10.23;;;5.00;;
37355;SDS011;48747;50.250;18.848;2023-04-30T08:30:00;8.28;;;5.85;;
37355;SDS011;48747;50.250;18.848;2023-04-30T08:32:03;7.97;;;5.17;;
37355;SDS011;48747;50.250;18.848;2023-04-30T08:34:06;9.53;;;4.70;;
37355;SDS011;48747;50.250;18.848;2023-04-30T08:36:09;8.40;;;4.75;;
37355;SDS011;48747;50.250;18.848;2023-04-30T08:38:14;10.28;;;4.60;;
37355;SDS011;48747;50.250;18.848;2023-04-30T08:40:17;6.95;;;4.90;;
37355;SDS011;48747;50.250;18.848;2023-04-30T08:42:29;11.50;;;5.28;;
37355;SDS011;48747;50.250;18.848;2023-04-30T08:44:35;8.98;;;5.33;;
37355;SDS011;48747;50.250;18.848;2023-04-30T08:46:43;9.48;;;4.50;;
37355;SDS011;48747;50.250;18.848;2023-04-30T08:48:46;8.28;;;5.53;;
37355;SDS011;48747;50.250;18.848;2023-04-30T08:50:49;11.40;;;5.67;;
37355;SDS011;48747;50.250;18.848;2023-04-30T08:52:54;8.40;;;5.42;;
37355;SDS011;48747;50.250;18.848;2023-04-30T08:54:59;20.08;;;9.45;;
37355;SDS011;48747;50.250;18.848;2023-04-30T08:57:03;12.53;;;6.83;;
37355;SDS011;48747;50.250;18.848;2023-04-30T08:59:07;9.85;;;5.65;;
37355;SDS011;48747;50.250;18.848;2023-04-30T09:01:11;8.18;;;4.80;;
37355;SDS011;48747;50.250;18.848;2023-04-30T09:03:14;10.72;;;5.37;;
37355;SDS011;48747;50.250;18.848;2023-04-30T09:05:17;7.28;;;5.47;;
37355;SDS011;48747;50.250;18.848;2023-04-30T09:07:20;7.78;;;4.65;;
37355;SDS011;48747;50.250;18.848;2023-04-30T09:09:27;8.63;;;4.78;;
37355;SDS011;48747;50.250;18.848;2023-04-30T09:11:32;6.78;;;4.55;;
37355;SDS011;48747;50.250;18.848;2023-04-30T09:13:41;6.72;;;3.42;;
37355;SDS011;48747;50.250;18.848;2023-04-30T09:15:44;8.15;;;4.28;;
37355;SDS011;48747;50.250;18.848;2023-04-30T09:17:50;8.28;;;4.20;;
37355;SDS011;48747;50.250;18.848;2023-04-30T09:20:05;6.97;;;4.05;;
37355;SDS011;48747;50.250;18.848;2023-04-30T09:22:19;7.12;;;4.12;;
37355;SDS011;48747;50.250;18.848;2023-04-30T09:24:23;7.47;;;4.10;;
37355;SDS011;48747;50.250;18.848;2023-04-30T09:26:31;7.05;;;3.80;;
37355;SDS011;48747;50.250;18.848;2023-04-30T09:28:35;6.85;;;4.00;;
37355;SDS011;48747;50.250;18.848;2023-04-30T09:30:38;6.60;;;4.20;;
37355;SDS011;48747;50.250;18.848;2023-04-30T09:32:54;7.10;;;4.25;;
37355;SDS011;48747;50.250;18.848;2023-04-30T09:34:57;6.20;;;4.17;;
37355;SDS011;48747;50.250;18.848;2023-04-30T09:37:00;7.50;;;4.70;;
37355;SDS011;48747;50.250;18.848;2023-04-30T09:39:08;8.35;;;4.25;;
37355;SDS011;48747;50.250;18.848;2023-04-30T09:41:23;6.15;;;3.72;;
37355;SDS011;48747;50.250;18.848;2023-04-30T09:43:27;9.40;;;4.22;;
37355;SDS011;48747;50.250;18.848;2023-04-30T09:45:44;6.85;;;4.15;;
37355;SDS011;48747;50.250;18.848;2023-04-30T09:47:51;8.23;;;3.90;;
37355;SDS011;48747;50.250;18.848;2023-04-30T09:49:54;7.55;;;3.77;;
37355;SDS011;48747;50.250;18.848;2023-04-30T09:51:58;9.15;;;4.45;;
37355;SDS011;48747;50.250;18.848;2023-04-30T09:54:02;8.25;;;4.28;;
37355;SDS011;48747;50.250;18.848;2023-04-30T09:56:08;7.90;;;3.90;;
37355;SDS011;48747;50.250;18.848;2023-04-30T09:58:14;8.05;;;4.62;;
37355;SDS011;48747;50.250;18.848;2023-04-30T10:00:19;7.17;;;3.60;;
37355;SDS011;48747;50.250;18.848;2023-04-30T10:02:22;6.05;;;3.65;;
37355;SDS011;48747;50.250;18.848;2023-04-30T10:04:30;10.45;;;4.47;;
37355;SDS011;48747;50.250;18.848;2023-04-30T10:06:41;6.12;;;3.72;;
37355;SDS011;48747;50.250;18.848;2023-04-30T10:08:46;7.10;;;3.90;;
37355;SDS011;48747;50.250;18.848;2023-04-30T10:10:52;6.28;;;3.33;;
37355;SDS011;48747;50.250;18.848;2023-04-30T10:12:58;7.87;;;3.67;;
37355;SDS011;48747;50.250;18.848;2023-04-30T10:15:08;6.30;;;3.67;;
37355;SDS011;48747;50.250;18.848;2023-04-30T10:17:29;7.35;;;4.33;;
37355;SDS011;48747;50.250;18.848;2023-04-30T10:19:38;6.62;;;4.00;;
37355;SDS011;48747;50.250;18.848;2023-04-30T10:21:43;7.28;;;3.95;;
37355;SDS011;48747;50.250;18.848;2023-04-30T10:23:48;5.87;;;3.20;;
37355;SDS011;48747;50.250;18.848;2023-04-30T10:25:51;5.47;;;3.30;;
37355;SDS011;48747;50.250;18.848;2023-04-30T10:27:55;5.78;;;2.98;;
37355;SDS011;48747;50.250;18.848;2023-04-30T10:29:58;7.22;;;3.30;;
37355;SDS011;48747;50.250;18.848;2023-04-30T10:32:03;7.28;;;4.00;;
37355;SDS011;48747;50.250;18.848;2023-04-30T10:34:14;6.20;;;3.42;;
37355;SDS011;48747;50.250;18.848;2023-04-30T10:36:23;5.10;;;3.25;;
37355;SDS011;48747;50.250;18.848;2023-04-30T10:38:29;5.75;;;3.60;;
37355;SDS011;48747;50.250;18.848;2023-04-30T10:40:36;8.35;;;4.28;;
37355;SDS011;48747;50.250;18.848;2023-04-30T10:42:52;7.58;;;3.90;;
37355;SDS011;48747;50.250;18.848;2023-04-30T10:44:47;12.03;;;3.87;;
37355;SDS011;48747;50.250;18.848;2023-04-30T10:46:57;6.33;;;3.75;;
37355;SDS011;48747;50.250;18.848;2023-04-30T10:49:03;4.67;;;3.50;;
37355;SDS011;48747;50.250;18.848;2023-04-30T10:51:06;8.60;;;3.17;;
37355;SDS011;48747;50.250;18.848;2023-04-30T10:53:13;4.87;;;3.42;;
37355;SDS011;48747;50.250;18.848;2023-04-30T10:55:23;5.45;;;3.50;;
37355;SDS011;48747;50.250;18.848;2023-04-30T10:57:28;7.83;;;3.50;;
37355;SDS011;48747;50.250;18.848;2023-04-30T10:59:31;7.05;;;3.35;;
37355;SDS011;48747;50.250;18.848;2023-04-30T11:01:55;6.15;;;3.50;;
37355;SDS011;48747;50.250;18.848;2023-04-30T11:04:07;6.78;;;3.70;;
37355;SDS011;48747;50.250;18.848;2023-04-30T11:06:14;5.85;;;3.60;;
37355;SDS011;48747;50.250;18.848;2023-04-30T11:08:13;7.40;;;3.67;;
37355;SDS011;48747;50.250;18.848;2023-04-30T11:10:22;5.60;;;3.50;;
37355;SDS011;48747;50.250;18.848;2023-04-30T11:12:27;7.87;;;3.62;;
37355;SDS011;48747;50.250;18.848;2023-04-30T11:14:31;8.23;;;3.58;;
37355;SDS011;48747;50.250;18.848;2023-04-30T11:16:34;5.90;;;3.77;;
37355;SDS011;48747;50.250;18.848;2023-04-30T11:18:41;5.58;;;3.55;;
37355;SDS011;48747;50.250;18.848;2023-04-30T11:20:48;11.03;;;3.50;;
37355;SDS011;48747;50.250;18.848;2023-04-30T11:23:07;6.70;;;3.25;;
37355;SDS011;48747;50.250;18.848;2023-04-30T11:25:23;5.72;;;3.35;;
37355;SDS011;48747;50.250;18.848;2023-04-30T11:27:24;9.23;;;3.47;;
37355;SDS011;48747;50.250;18.848;2023-04-30T11:29:28;8.63;;;3.47;;
37355;SDS011;48747;50.250;18.848;2023-04-30T11:31:33;4.33;;;3.10;;
37355;SDS011;48747;50.250;18.848;2023-04-30T11:33:39;5.42;;;2.95;;
37355;SDS011;48747;50.250;18.848;2023-04-30T11:35:41;5.55;;;3.70;;
37355;SDS011;48747;50.250;18.848;2023-04-30T11:37:45;26.45;;;16.82;;
37355;SDS011;48747;50.250;18.848;2023-04-30T11:39:50;5.37;;;3.75;;
37355;SDS011;48747;50.250;18.848;2023-04-30T11:41:54;9.75;;;5.67;;
37355;SDS011;48747;50.250;18.848;2023-04-30T11:43:58;6.33;;;3.45;;
37355;SDS011;48747;50.250;18.848;2023-04-30T11:48:11;16.05;;;10.78;;
37355;SDS011;48747;50.250;18.848;2023-04-30T11:50:15;28.05;;;17.07;;
37355;SDS011;48747;50.250;18.848;2023-04-30T11:52:20;21.15;;;12.60;;
37355;SDS011;48747;50.250;18.848;2023-04-30T11:54:24;8.48;;;5.70;;
37355;SDS011;48747;50.250;18.848;2023-04-30T11:56:28;7.55;;;3.70;;
37355;SDS011;48747;50.250;18.848;2023-04-30T11:58:32;7.62;;;3.20;;
37355;SDS011;48747;50.250;18.848;2023-04-30T12:00:38;5.97;;;3.50;;
37355;SDS011;48747;50.250;18.848;2023-04-30T12:02:42;8.25;;;3.75;;
37355;SDS011;48747;50.250;18.848;2023-04-30T12:04:46;15.98;;;11.73;;
37355;SDS011;48747;50.250;18.848;2023-04-30T12:06:49;7.15;;;4.28;;
37355;SDS011;48747;50.250;18.848;2023-04-30T12:08:53;5.40;;;3.52;;
37355;SDS011;48747;50.250;18.848;2023-04-30T12:10:59;7.42;;;3.42;;
37355;SDS011;48747;50.250;18.848;2023-04-30T12:13:03;5.92;;;3.75;;
37355;SDS011;48747;50.250;18.848;2023-04-30T12:15:09;55.12;;;39.40;;
37355;SDS011;48747;50.250;18.848;2023-04-30T12:17:29;7.17;;;3.90;;
37355;SDS011;48747;50.250;18.848;2023-04-30T12:19:33;18.17;;;11.43;;
37355;SDS011;48747;50.250;18.848;2023-04-30T12:21:36;6.78;;;4.03;;